Anza, California
Current Conditions -  °F | °C
As of 5:53 AM on Wednesday 26 Nov 2014 (Local Time) from KPSP Reporting Station
Clear Clear  
Wind Chill: 50°   Ceiling: Unl
Heat Index: 50°   Visibility: 10mi
Dew Point: 21°   Wind: 3mph
Humidity: 32%   Direction: 300°WNW
Pressure: 30.29"   Gusts: NA
Location:  33.55°N, 116.67°W
Report Text: KPSP 261353Z 30003KT 10SM CLR 10/M06 A3029 RMK AO2 SLP259 T01001061
Loading
Personal Weather Stations






























Interactive Weather Map New forecast layout! Learn more

10-Day Weather Forecast

Advertisements
Track Severe Weather on mobile